Vision — WDF6306 — position and weather

sailwx.info

Track history (hours):
 
Tides and Currents Weather Stations Pressure Air Temp Water Temp Dewpoint Dewpoint Depression Visibility Wind Speed Wind Dir Waves Ship Positions

Vision

Owner: INTREPID SHIP MANAGEMENT, JACKSONVILLE, FL. More information available from US FCC via Universal Licensing System and Coast Guard Vessel Documentation Center.

Last reported at 2015-Jul-30 07:33 UTC. Time now 2015-Jul-30 08:13 UTC.
Position N 48°08' W 125°15'.

Length 199 m; draft 6.4 m.

Type: Towing. MMSI: 366904000.

Date/timePositionNaut miles runAvg speedWind from/ knotsBaromVisibWave heightAir tempDewpointWater temp
2015-Jul-30 07:33N 48°08' W 125°15'1211.8
2015-Jul-30 06:33N 47°59' W 125°26'1211.5
2015-Jul-30 05:33N 47°49' W 125°34'1011.5
2015-Jul-30 04:39N 47°40' W 125°41'1 8.3
2015-Jul-30 04:33N 47°39' W 125°41'1111.3
2015-Jul-30 03:33N 47°28' W 125°42'311.5
2015-Jul-30 03:19N 47°25' W 125°42'911.5
2015-Jul-30 02:33N 47°16' W 125°43'1111.4
2015-Jul-30 01:33N 47°05' W 125°43'1211.2
2015-Jul-30 00:31N 46°53' W 125°44'1110.9
2015-Jul-29 23:33N 46°43' W 125°45'5 5.1
2015-Jul-29 22:33N 46°38' W 125°44'1312.8
2015-Jul-29 21:33N 46°51' W 125°45'1212.5
2015-Jul-29 20:33N 47°03' W 125°44'612.1
2015-Jul-29 20:03N 47°09' W 125°44'612.2
2015-Jul-29 19:33N 47°15' W 125°43'1211.8
2015-Jul-29 18:33N 47°27' W 125°43'1412.0
2015-Jul-29 17:25N 47°40' W 125°40'1112.0
2015-Jul-29 16:30N 47°50' W 125°34'1212.3
2015-Jul-29 15:33N 48°01' W 125°25'1412.2
2015-Jul-29 14:26N 48°13' W 125°16'1112.2
2015-Jul-29 13:33N 48°22' W 125°09'1212.1
2015-Jul-29 12:33N 48°32' W 124°57'1111.2
2015-Jul-29 11:33N 48°30' W 124°40'1211.5
2015-Jul-29 10:33N 48°26' W 124°24'1110.7
2015-Jul-29 09:33N 48°22' W 124°09'1111.1
2015-Jul-29 08:33N 48°17' W 123°54'1111.3
2015-Jul-29 07:33N 48°16' W 123°37'10 9.8
2015-Jul-29 06:34N 48°11' W 123°24'6 6.1
2015-Jul-29 05:35N 48°11' W 123°15'012.3
2015-Jul-29 05:33N 48°11' W 123°15'1212.2
2015-Jul-29 04:33N 48°19' W 123°01'1212.5
2015-Jul-29 03:33N 48°27' W 122°46'10 9.2
2015-Jul-29 02:32N 48°31' W 122°34'0 0.1
2015-Jul-29 01:29N 48°31' W 122°33'0 0.0
2015-Jul-29 00:32N 48°31' W 122°33'0 0.1
2015-Jul-28 23:32N 48°31' W 122°34'0 0.1
2015-Jul-28 21:32N 48°31' W 122°34'0 0.2
2015-Jul-28 20:23N 48°31' W 122°33'0 0.2
2015-Jul-28 19:24N 48°31' W 122°34'1 1.1
2015-Jul-28 18:26N 48°31' W 122°35'0 0.0
2015-Jul-28 17:32N 48°31' W 122°35'0 0.0
2015-Jul-28 16:32N 48°31' W 122°35'0 0.0
2015-Jul-28 15:32N 48°31' W 122°35'0 0.0
2015-Jul-28 14:32N 48°31' W 122°35'0 0.0
2015-Jul-28 13:32N 48°31' W 122°35'0 0.0
2015-Jul-28 12:32N 48°31' W 122°35'0 0.0
2015-Jul-28 11:32N 48°31' W 122°35'0 0.0
2015-Jul-28 10:32N 48°31' W 122°35'0 0.0
2015-Jul-28 09:32N 48°31' W 122°35'0 0.0
2015-Jul-28 08:26N 48°31' W 122°35'0 0.0
2015-Jul-28 07:32N 48°31' W 122°35'0 0.0
2015-Jul-28 06:26N 48°31' W 122°35'0 0.0
2015-Jul-28 05:20N 48°31' W 122°35'0 0.0
2015-Jul-28 04:32N 48°31' W 122°35'0 0.0
2015-Jul-28 03:32N 48°31' W 122°35'0 0.0
2015-Jul-28 02:32N 48°31' W 122°35'0 0.0
2015-Jul-28 01:26N 48°31' W 122°35'0 0.0
2015-Jul-28 00:32N 48°31' W 122°35'0 0.0
2015-Jul-27 23:32N 48°31' W 122°35'0 0.0
2015-Jul-27 22:32N 48°31' W 122°35'0 0.0
2015-Jul-27 21:32N 48°31' W 122°35'0 0.0
2015-Jul-27 20:32N 48°31' W 122°35'0 0.0
2015-Jul-27 19:32N 48°31' W 122°35'0 0.0
2015-Jul-27 18:14N 48°31' W 122°35'0 0.0
2015-Jul-27 17:32N 48°31' W 122°35'1 0.5
2015-Jul-27 16:32N 48°31' W 122°34'0 0.0
2015-Jul-27 15:29N 48°31' W 122°34'0 0.0
2015-Jul-27 14:23N 48°31' W 122°34'0 0.0
2015-Jul-27 13:29N 48°31' W 122°34'0 0.0
2015-Jul-27 12:29N 48°31' W 122°34'0 0.0
2015-Jul-27 11:23N 48°31' W 122°34'0 0.0
2015-Jul-27 10:23N 48°31' W 122°34'0 0.0
2015-Jul-27 09:05N 48°31' W 122°34'0 0.0
2015-Jul-27 08:29N 48°31' W 122°34'0 0.0
2015-Jul-27 08:26N 48°31' W 122°34'0 0.0
2015-Jul-27 07:29N 48°31' W 122°34'0 0.1
2015-Jul-27 06:29N 48°31' W 122°34'0 0.0
2015-Jul-27 05:29N 48°31' W 122°34'0 0.0
2015-Jul-27 04:29N 48°31' W 122°34'0 0.0
2015-Jul-27 03:29N 48°31' W 122°34'0 0.0
2015-Jul-27 02:29N 48°31' W 122°34'0 0.1
2015-Jul-27 01:29N 48°31' W 122°34'0 0.0
2015-Jul-27 00:29N 48°31' W 122°34'0 0.2
2015-Jul-26 23:17N 48°31' W 122°34'0 0.5
2015-Jul-26 22:32N 48°31' W 122°35'0 0.0
2015-Jul-26 21:32N 48°31' W 122°35'0 0.0
2015-Jul-26 20:26N 48°31' W 122°35'0 0.0
2015-Jul-26 19:59N 48°31' W 122°35'0 0.0
2015-Jul-26 19:26N 48°31' W 122°35'0 0.0
2015-Jul-26 18:32N 48°31' W 122°35'0 0.0
2015-Jul-26 17:14N 48°31' W 122°35'0 0.0
2015-Jul-26 16:32N 48°31' W 122°35'0 0.0
2015-Jul-26 15:32N 48°31' W 122°35'0 0.0
2015-Jul-26 14:32N 48°31' W 122°35'0 0.0
2015-Jul-26 13:32N 48°31' W 122°35'0 0.0
2015-Jul-26 12:26N 48°31' W 122°35'0 0.0
2015-Jul-26 11:53N 48°31' W 122°35'0 0.0
2015-Jul-26 11:32N 48°31' W 122°35'0 0.0
2015-Jul-26 11:23N 48°31' W 122°35'0 0.0
2015-Jul-26 10:32N 48°31' W 122°35'0 0.0
2015-Jul-26 09:32N 48°31' W 122°35'0 0.0
2015-Jul-26 08:53N 48°31' W 122°35'0 0.0
2015-Jul-26 08:20N 48°31' W 122°35'0 0.0
2015-Jul-26 07:32N 48°31' W 122°35'0 0.0
2015-Jul-26 06:32N 48°31' W 122°35'0 0.0
2015-Jul-26 05:32N 48°31' W 122°35'0 0.0
2015-Jul-26 04:32N 48°31' W 122°35'0 0.0
2015-Jul-26 03:32N 48°31' W 122°35'0 0.0
2015-Jul-26 02:32N 48°31' W 122°35'0 0.0
2015-Jul-26 01:32N 48°31' W 122°35'0 0.0
2015-Jul-26 00:26N 48°31' W 122°35'0 0.0
2015-Jul-25 23:32N 48°31' W 122°35'0 0.0
2015-Jul-25 22:32N 48°31' W 122°35'0 0.0
2015-Jul-25 21:32N 48°31' W 122°35'0 0.0
2015-Jul-25 20:32N 48°31' W 122°35'0 0.0
2015-Jul-25 19:32N 48°31' W 122°35'0 0.0
2015-Jul-25 18:32N 48°31' W 122°35'0 0.0
2015-Jul-25 17:32N 48°31' W 122°35'0 0.0
2015-Jul-25 16:32N 48°31' W 122°35'0 0.0
2015-Jul-25 15:32N 48°31' W 122°35'0 0.0
2015-Jul-25 14:26N 48°31' W 122°35'0 0.0
2015-Jul-25 13:32N 48°31' W 122°35'0 0.0
2015-Jul-25 12:26N 48°31' W 122°35'0 0.0
2015-Jul-25 11:32N 48°31' W 122°35'0 0.0
2015-Jul-25 10:32N 48°31' W 122°35'0 0.0
2015-Jul-25 09:33N 48°31' W 122°35'0 0.0
2015-Jul-25 08:33N 48°31' W 122°35'0 0.0
2015-Jul-25 07:33N 48°31' W 122°35'0 0.0
2015-Jul-25 06:33N 48°31' W 122°35'0 0.0
2015-Jul-25 05:33N 48°31' W 122°35'0 0.0
2015-Jul-25 04:33N 48°31' W 122°35'0 0.0
2015-Jul-25 03:33N 48°31' W 122°35'0 0.0
2015-Jul-25 02:33N 48°31' W 122°35'0 0.0
2015-Jul-25 01:33N 48°31' W 122°35'0 0.0
2015-Jul-25 00:33N 48°31' W 122°35'0 0.0
2015-Jul-24 23:33N 48°31' W 122°35'0 0.0
2015-Jul-24 22:33N 48°31' W 122°35'0 0.0
2015-Jul-24 21:33N 48°31' W 122°35'0 0.0
2015-Jul-24 20:33N 48°31' W 122°35'0 0.0
2015-Jul-24 19:33N 48°31' W 122°35'0 0.0
2015-Jul-24 18:33N 48°31' W 122°35'0 0.0
2015-Jul-24 17:33N 48°31' W 122°35'0 0.0
2015-Jul-24 16:33N 48°31' W 122°35'0 0.0
2015-Jul-24 15:33N 48°31' W 122°35'1 0.6
2015-Jul-24 14:33N 48°31' W 122°35'0 0.0
2015-Jul-24 13:33N 48°31' W 122°35'0 0.0
2015-Jul-24 12:33N 48°31' W 122°35'0 0.0
2015-Jul-24 11:33N 48°31' W 122°35'0 0.0
2015-Jul-24 10:33N 48°31' W 122°35'0 0.0
2015-Jul-24 09:33N 48°31' W 122°35'0 0.0
2015-Jul-24 08:33N 48°31' W 122°35'0 0.0
2015-Jul-24 07:33N 48°31' W 122°35'0 0.0
2015-Jul-24 06:33N 48°31' W 122°35'0 0.1
2015-Jul-24 05:33N 48°31' W 122°35'0 0.2
2015-Jul-24 04:33N 48°31' W 122°35'0 0.0
2015-Jul-24 03:33N 48°31' W 122°35'0 0.1
2015-Jul-24 02:33N 48°31' W 122°35'0 0.0
2015-Jul-24 01:33N 48°31' W 122°35'0 0.0
2015-Jul-24 00:27N 48°31' W 122°35'0 0.2
2015-Jul-23 23:33N 48°31' W 122°35'1 1.2
2015-Jul-23 22:33N 48°32' W 122°37'9 8.7
2015-Jul-23 21:32N 48°25' W 122°46'411.3
2015-Jul-23 21:09N 48°22' W 122°51'711.8
2015-Jul-23 20:31N 48°18' W 123°01'1111.6
2015-Jul-23 19:33N 48°12' W 123°15'10 9.9
2015-Jul-23 18:33N 48°12' W 123°30'1111.3
2015-Jul-23 17:33N 48°13' W 123°47'1110.7
2015-Jul-23 16:33N 48°15' W 124°02'1111.4
2015-Jul-23 15:33N 48°20' W 124°18'1211.7
2015-Jul-23 14:33N 48°25' W 124°33'1211.6
2015-Jul-23 13:33N 48°29' W 124°50'1212.2
2015-Jul-23 12:33N 48°28' W 125°09'1212.0
2015-Jul-23 11:33N 48°27' W 125°27'1010.4
2015-Jul-23 10:33N 48°26' W 125°42'7 6.9
2015-Jul-23 09:33N 48°24' W 125°52'7 7.2
2015-Jul-23 08:31N 48°22' W 126°03'24 0.6
2015-Jul-21 18:26N 47°59' W 125°54'12 6.2
2015-Jul-21 16:29N 48°08' W 125°43'6 5.9
2015-Jul-21 15:33N 48°13' W 125°38'6 6.5
2015-Jul-21 14:33N 48°18' W 125°33'10 9.6
2015-Jul-21 13:33N 48°26' W 125°25'7 7.1
2015-Jul-21 12:33N 48°30' W 125°16'1110.5
2015-Jul-21 11:33N 48°32' W 125°00'2712.2
2015-Jul-21 09:19N 48°24' W 124°20'1113.3
2015-Jul-21 08:27N 48°20' W 124°05'1213.4
2015-Jul-21 07:32N 48°17' W 123°47'1013.8
2015-Jul-21 06:49N 48°15' W 123°32'311.8
2015-Jul-21 06:33N 48°14' W 123°28'9 8.6
2015-Jul-21 05:32N 48°11' W 123°15'212.5
2015-Jul-21 05:24N 48°13' W 123°13'1012.4
2015-Jul-21 04:33N 48°19' W 123°01'411.5
2015-Jul-21 04:14N 48°21' W 122°56'710.7
2015-Jul-21 03:33N 48°25' W 122°47'9 9.2
2015-Jul-21 02:33N 48°32' W 122°37'2 1.6
2015-Jul-21 01:31N 48°31' W 122°35'0 0.0
2015-Jul-21 00:31N 48°31' W 122°35'0 0.0
2015-Jul-20 23:31N 48°31' W 122°35'0 0.0
2015-Jul-20 22:31N 48°31' W 122°35'0 0.0
2015-Jul-20 21:31N 48°31' W 122°35'0 0.0
2015-Jul-20 20:31N 48°31' W 122°35'0 0.0
2015-Jul-20 19:31N 48°31' W 122°35'0 0.0
2015-Jul-20 18:31N 48°31' W 122°35'0 0.0
2015-Jul-20 17:31N 48°31' W 122°35'0 0.0
2015-Jul-20 16:31N 48°31' W 122°35'0 0.0
2015-Jul-20 15:25N 48°31' W 122°35'0 0.0
2015-Jul-20 14:31N 48°31' W 122°35'0 0.0
2015-Jul-20 13:31N 48°31' W 122°35'0 0.0
2015-Jul-20 12:31N 48°31' W 122°35'0 0.0
2015-Jul-20 11:31N 48°31' W 122°35'0 0.0
2015-Jul-20 10:31N 48°31' W 122°35'0 0.0
2015-Jul-20 09:31N 48°31' W 122°35'0 0.0
2015-Jul-20 08:31N 48°31' W 122°35'  
Track history (hours):
 
Tides and Currents Weather Stations Pressure Air Temp Water Temp Dewpoint Dewpoint Depression Visibility Wind Speed Wind Dir Waves Ship Positions

Vision

Owner: INTREPID SHIP MANAGEMENT, JACKSONVILLE, FL. More information available from US FCC via Universal Licensing System and Coast Guard Vessel Documentation Center.

Last reported at 2015-Jul-30 07:33 UTC. Time now 2015-Jul-30 08:13 UTC.
Position N 48°08' W 125°15'.

Length 199 m; draft 6.4 m.

Type: Towing. MMSI: 366904000.

Date/timePositionNaut miles runAvg speedWind from/ knotsBaromVisibWave heightAir tempDewpointWater temp
2015-Jul-30 07:33N 48°08' W 125°15'1211.8
2015-Jul-30 06:33N 47°59' W 125°26'1211.5
2015-Jul-30 05:33N 47°49' W 125°34'1011.5
2015-Jul-30 04:39N 47°40' W 125°41'1 8.3
2015-Jul-30 04:33N 47°39' W 125°41'1111.3
2015-Jul-30 03:33N 47°28' W 125°42'311.5
2015-Jul-30 03:19N 47°25' W 125°42'911.5
2015-Jul-30 02:33N 47°16' W 125°43'1111.4
2015-Jul-30 01:33N 47°05' W 125°43'1211.2
2015-Jul-30 00:31N 46°53' W 125°44'1110.9
2015-Jul-29 23:33N 46°43' W 125°45'5 5.1
2015-Jul-29 22:33N 46°38' W 125°44'1312.8
2015-Jul-29 21:33N 46°51' W 125°45'1212.5
2015-Jul-29 20:33N 47°03' W 125°44'612.1
2015-Jul-29 20:03N 47°09' W 125°44'612.2
2015-Jul-29 19:33N 47°15' W 125°43'1211.8
2015-Jul-29 18:33N 47°27' W 125°43'1412.0
2015-Jul-29 17:25N 47°40' W 125°40'1112.0
2015-Jul-29 16:30N 47°50' W 125°34'1212.3
2015-Jul-29 15:33N 48°01' W 125°25'1412.2
2015-Jul-29 14:26N 48°13' W 125°16'1112.2
2015-Jul-29 13:33N 48°22' W 125°09'1212.1
2015-Jul-29 12:33N 48°32' W 124°57'1111.2
2015-Jul-29 11:33N 48°30' W 124°40'1211.5
2015-Jul-29 10:33N 48°26' W 124°24'1110.7
2015-Jul-29 09:33N 48°22' W 124°09'1111.1
2015-Jul-29 08:33N 48°17' W 123°54'1111.3
2015-Jul-29 07:33N 48°16' W 123°37'10 9.8
2015-Jul-29 06:34N 48°11' W 123°24'6 6.1
2015-Jul-29 05:35N 48°11' W 123°15'012.3
2015-Jul-29 05:33N 48°11' W 123°15'1212.2
2015-Jul-29 04:33N 48°19' W 123°01'1212.5
2015-Jul-29 03:33N 48°27' W 122°46'10 9.2
2015-Jul-29 02:32N 48°31' W 122°34'0 0.1
2015-Jul-29 01:29N 48°31' W 122°33'0 0.0
2015-Jul-29 00:32N 48°31' W 122°33'0 0.1
2015-Jul-28 23:32N 48°31' W 122°34'0 0.1
2015-Jul-28 21:32N 48°31' W 122°34'0 0.2
2015-Jul-28 20:23N 48°31' W 122°33'0 0.2
2015-Jul-28 19:24N 48°31' W 122°34'1 1.1
2015-Jul-28 18:26N 48°31' W 122°35'0 0.0
2015-Jul-28 17:32N 48°31' W 122°35'0 0.0
2015-Jul-28 16:32N 48°31' W 122°35'0 0.0
2015-Jul-28 15:32N 48°31' W 122°35'0 0.0
2015-Jul-28 14:32N 48°31' W 122°35'0 0.0
2015-Jul-28 13:32N 48°31' W 122°35'0 0.0
2015-Jul-28 12:32N 48°31' W 122°35'0 0.0
2015-Jul-28 11:32N 48°31' W 122°35'0 0.0
2015-Jul-28 10:32N 48°31' W 122°35'0 0.0
2015-Jul-28 09:32N 48°31' W 122°35'0 0.0
2015-Jul-28 08:26N 48°31' W 122°35'0 0.0
2015-Jul-28 07:32N 48°31' W 122°35'0 0.0
2015-Jul-28 06:26N 48°31' W 122°35'0 0.0
2015-Jul-28 05:20N 48°31' W 122°35'0 0.0
2015-Jul-28 04:32N 48°31' W 122°35'0 0.0
2015-Jul-28 03:32N 48°31' W 122°35'0 0.0
2015-Jul-28 02:32N 48°31' W 122°35'0 0.0
2015-Jul-28 01:26N 48°31' W 122°35'0 0.0
2015-Jul-28 00:32N 48°31' W 122°35'0 0.0
2015-Jul-27 23:32N 48°31' W 122°35'0 0.0
2015-Jul-27 22:32N 48°31' W 122°35'0 0.0
2015-Jul-27 21:32N 48°31' W 122°35'0 0.0
2015-Jul-27 20:32N 48°31' W 122°35'0 0.0
2015-Jul-27 19:32N 48°31' W 122°35'0 0.0
2015-Jul-27 18:14N 48°31' W 122°35'0 0.0
2015-Jul-27 17:32N 48°31' W 122°35'1 0.5
2015-Jul-27 16:32N 48°31' W 122°34'0 0.0
2015-Jul-27 15:29N 48°31' W 122°34'0 0.0
2015-Jul-27 14:23N 48°31' W 122°34'0 0.0
2015-Jul-27 13:29N 48°31' W 122°34'0 0.0
2015-Jul-27 12:29N 48°31' W 122°34'0 0.0
2015-Jul-27 11:23N 48°31' W 122°34'0 0.0
2015-Jul-27 10:23N 48°31' W 122°34'0 0.0
2015-Jul-27 09:05N 48°31' W 122°34'0 0.0
2015-Jul-27 08:29N 48°31' W 122°34'0 0.0
2015-Jul-27 08:26N 48°31' W 122°34'0 0.0
2015-Jul-27 07:29N 48°31' W 122°34'0 0.1
2015-Jul-27 06:29N 48°31' W 122°34'0 0.0
2015-Jul-27 05:29N 48°31' W 122°34'0 0.0
2015-Jul-27 04:29N 48°31' W 122°34'0 0.0
2015-Jul-27 03:29N 48°31' W 122°34'0 0.0
2015-Jul-27 02:29N 48°31' W 122°34'0 0.1
2015-Jul-27 01:29N 48°31' W 122°34'0 0.0
2015-Jul-27 00:29N 48°31' W 122°34'0 0.2
2015-Jul-26 23:17N 48°31' W 122°34'0 0.5
2015-Jul-26 22:32N 48°31' W 122°35'0 0.0
2015-Jul-26 21:32N 48°31' W 122°35'0 0.0
2015-Jul-26 20:26N 48°31' W 122°35'0 0.0
2015-Jul-26 19:59N 48°31' W 122°35'0 0.0
2015-Jul-26 19:26N 48°31' W 122°35'0 0.0
2015-Jul-26 18:32N 48°31' W 122°35'0 0.0
2015-Jul-26 17:14N 48°31' W 122°35'0 0.0
2015-Jul-26 16:32N 48°31' W 122°35'0 0.0
2015-Jul-26 15:32N 48°31' W 122°35'0 0.0
2015-Jul-26 14:32N 48°31' W 122°35'0 0.0
2015-Jul-26 13:32N 48°31' W 122°35'0 0.0
2015-Jul-26 12:26N 48°31' W 122°35'0 0.0
2015-Jul-26 11:53N 48°31' W 122°35'0 0.0
2015-Jul-26 11:32N 48°31' W 122°35'0 0.0
2015-Jul-26 11:23N 48°31' W 122°35'0 0.0
2015-Jul-26 10:32N 48°31' W 122°35'0 0.0
2015-Jul-26 09:32N 48°31' W 122°35'0 0.0
2015-Jul-26 08:53N 48°31' W 122°35'0 0.0
2015-Jul-26 08:20N 48°31' W 122°35'0 0.0
2015-Jul-26 07:32N 48°31' W 122°35'0 0.0
2015-Jul-26 06:32N 48°31' W 122°35'0 0.0
2015-Jul-26 05:32N 48°31' W 122°35'0 0.0
2015-Jul-26 04:32N 48°31' W 122°35'0 0.0
2015-Jul-26 03:32N 48°31' W 122°35'0 0.0
2015-Jul-26 02:32N 48°31' W 122°35'0 0.0
2015-Jul-26 01:32N 48°31' W 122°35'0 0.0
2015-Jul-26 00:26N 48°31' W 122°35'0 0.0
2015-Jul-25 23:32N 48°31' W 122°35'0 0.0
2015-Jul-25 22:32N 48°31' W 122°35'0 0.0
2015-Jul-25 21:32N 48°31' W 122°35'0 0.0
2015-Jul-25 20:32N 48°31' W 122°35'0 0.0
2015-Jul-25 19:32N 48°31' W 122°35'0 0.0
2015-Jul-25 18:32N 48°31' W 122°35'0 0.0
2015-Jul-25 17:32N 48°31' W 122°35'0 0.0
2015-Jul-25 16:32N 48°31' W 122°35'0 0.0
2015-Jul-25 15:32N 48°31' W 122°35'0 0.0
2015-Jul-25 14:26N 48°31' W 122°35'0 0.0
2015-Jul-25 13:32N 48°31' W 122°35'0 0.0
2015-Jul-25 12:26N 48°31' W 122°35'0 0.0
2015-Jul-25 11:32N 48°31' W 122°35'0 0.0
2015-Jul-25 10:32N 48°31' W 122°35'0 0.0
2015-Jul-25 09:33N 48°31' W 122°35'0 0.0
2015-Jul-25 08:33N 48°31' W 122°35'0 0.0
2015-Jul-25 07:33N 48°31' W 122°35'0 0.0
2015-Jul-25 06:33N 48°31' W 122°35'0 0.0
2015-Jul-25 05:33N 48°31' W 122°35'0 0.0
2015-Jul-25 04:33N 48°31' W 122°35'0 0.0
2015-Jul-25 03:33N 48°31' W 122°35'0 0.0
2015-Jul-25 02:33N 48°31' W 122°35'0 0.0
2015-Jul-25 01:33N 48°31' W 122°35'0 0.0
2015-Jul-25 00:33N 48°31' W 122°35'0 0.0
2015-Jul-24 23:33N 48°31' W 122°35'0 0.0
2015-Jul-24 22:33N 48°31' W 122°35'0 0.0
2015-Jul-24 21:33N 48°31' W 122°35'0 0.0
2015-Jul-24 20:33N 48°31' W 122°35'0 0.0
2015-Jul-24 19:33N 48°31' W 122°35'0 0.0
2015-Jul-24 18:33N 48°31' W 122°35'0 0.0
2015-Jul-24 17:33N 48°31' W 122°35'0 0.0
2015-Jul-24 16:33N 48°31' W 122°35'0 0.0
2015-Jul-24 15:33N 48°31' W 122°35'1 0.6
2015-Jul-24 14:33N 48°31' W 122°35'0 0.0
2015-Jul-24 13:33N 48°31' W 122°35'0 0.0
2015-Jul-24 12:33N 48°31' W 122°35'0 0.0
2015-Jul-24 11:33N 48°31' W 122°35'0 0.0
2015-Jul-24 10:33N 48°31' W 122°35'0 0.0
2015-Jul-24 09:33N 48°31' W 122°35'0 0.0
2015-Jul-24 08:33N 48°31' W 122°35'0 0.0
2015-Jul-24 07:33N 48°31' W 122°35'0 0.0
2015-Jul-24 06:33N 48°31' W 122°35'0 0.1
2015-Jul-24 05:33N 48°31' W 122°35'0 0.2
2015-Jul-24 04:33N 48°31' W 122°35'0 0.0
2015-Jul-24 03:33N 48°31' W 122°35'0 0.1
2015-Jul-24 02:33N 48°31' W 122°35'0 0.0
2015-Jul-24 01:33N 48°31' W 122°35'0 0.0
2015-Jul-24 00:27N 48°31' W 122°35'0 0.2
2015-Jul-23 23:33N 48°31' W 122°35'1 1.2
2015-Jul-23 22:33N 48°32' W 122°37'9 8.7
2015-Jul-23 21:32N 48°25' W 122°46'411.3
2015-Jul-23 21:09N 48°22' W 122°51'711.8
2015-Jul-23 20:31N 48°18' W 123°01'1111.6
2015-Jul-23 19:33N 48°12' W 123°15'10 9.9
2015-Jul-23 18:33N 48°12' W 123°30'1111.3
2015-Jul-23 17:33N 48°13' W 123°47'1110.7
2015-Jul-23 16:33N 48°15' W 124°02'1111.4
2015-Jul-23 15:33N 48°20' W 124°18'1211.7
2015-Jul-23 14:33N 48°25' W 124°33'1211.6
2015-Jul-23 13:33N 48°29' W 124°50'1212.2
2015-Jul-23 12:33N 48°28' W 125°09'1212.0
2015-Jul-23 11:33N 48°27' W 125°27'1010.4
2015-Jul-23 10:33N 48°26' W 125°42'7 6.9
2015-Jul-23 09:33N 48°24' W 125°52'7 7.2
2015-Jul-23 08:31N 48°22' W 126°03'24 0.6
2015-Jul-21 18:26N 47°59' W 125°54'12 6.2
2015-Jul-21 16:29N 48°08' W 125°43'6 5.9
2015-Jul-21 15:33N 48°13' W 125°38'6 6.5
2015-Jul-21 14:33N 48°18' W 125°33'10 9.6
2015-Jul-21 13:33N 48°26' W 125°25'7 7.1
2015-Jul-21 12:33N 48°30' W 125°16'1110.5
2015-Jul-21 11:33N 48°32' W 125°00'2712.2
2015-Jul-21 09:19N 48°24' W 124°20'1113.3
2015-Jul-21 08:27N 48°20' W 124°05'1213.4
2015-Jul-21 07:32N 48°17' W 123°47'1013.8
2015-Jul-21 06:49N 48°15' W 123°32'311.8
2015-Jul-21 06:33N 48°14' W 123°28'9 8.6
2015-Jul-21 05:32N 48°11' W 123°15'212.5
2015-Jul-21 05:24N 48°13' W 123°13'1012.4
2015-Jul-21 04:33N 48°19' W 123°01'411.5
2015-Jul-21 04:14N 48°21' W 122°56'710.7
2015-Jul-21 03:33N 48°25' W 122°47'9 9.2
2015-Jul-21 02:33N 48°32' W 122°37'2 1.6
2015-Jul-21 01:31N 48°31' W 122°35'0 0.0
2015-Jul-21 00:31N 48°31' W 122°35'0 0.0
2015-Jul-20 23:31N 48°31' W 122°35'0 0.0
2015-Jul-20 22:31N 48°31' W 122°35'0 0.0
2015-Jul-20 21:31N 48°31' W 122°35'0 0.0
2015-Jul-20 20:31N 48°31' W 122°35'0 0.0
2015-Jul-20 19:31N 48°31' W 122°35'0 0.0
2015-Jul-20 18:31N 48°31' W 122°35'0 0.0
2015-Jul-20 17:31N 48°31' W 122°35'0 0.0
2015-Jul-20 16:31N 48°31' W 122°35'0 0.0
2015-Jul-20 15:25N 48°31' W 122°35'0 0.0
2015-Jul-20 14:31N 48°31' W 122°35'0 0.0
2015-Jul-20 13:31N 48°31' W 122°35'0 0.0
2015-Jul-20 12:31N 48°31' W 122°35'0 0.0
2015-Jul-20 11:31N 48°31' W 122°35'0 0.0
2015-Jul-20 10:31N 48°31' W 122°35'0 0.0
2015-Jul-20 09:31N 48°31' W 122°35'0 0.0
2015-Jul-20 08:31N 48°31' W 122°35'  

Dump ship's entire track history